sensor_id;sensor_type;location;lat;lon;timestamp;temperature;humidity
37658;DHT22;23500;53.268;8.308;2024-01-07T00:00:07;16.40;67.90
37658;DHT22;23500;53.268;8.308;2024-01-07T00:02:33;16.30;67.70
37658;DHT22;23500;53.268;8.308;2024-01-07T00:04:59;16.30;67.80
37658;DHT22;23500;53.268;8.308;2024-01-07T00:07:25;16.40;68.00
37658;DHT22;23500;53.268;8.308;2024-01-07T00:09:51;16.30;68.00
37658;DHT22;23500;53.268;8.308;2024-01-07T00:12:17;16.30;67.80
37658;DHT22;23500;53.268;8.308;2024-01-07T00:14:42;16.30;67.90
37658;DHT22;23500;53.268;8.308;2024-01-07T00:17:10;16.30;68.00
37658;DHT22;23500;53.268;8.308;2024-01-07T00:19:35;16.30;67.80
37658;DHT22;23500;53.268;8.308;2024-01-07T00:22:03;16.30;67.90
37658;DHT22;23500;53.268;8.308;2024-01-07T00:24:29;16.30;68.00
37658;DHT22;23500;53.268;8.308;2024-01-07T00:26:55;16.30;68.00
37658;DHT22;23500;53.268;8.308;2024-01-07T00:29:21;16.30;68.10
37658;DHT22;23500;53.268;8.308;2024-01-07T00:31:47;16.30;68.00
37658;DHT22;23500;53.268;8.308;2024-01-07T00:34:12;16.30;67.90
37658;DHT22;23500;53.268;8.308;2024-01-07T00:36:38;16.20;67.90
37658;DHT22;23500;53.268;8.308;2024-01-07T00:39:04;16.30;68.00
37658;DHT22;23500;53.268;8.308;2024-01-07T00:41:30;16.30;68.00
37658;DHT22;23500;53.268;8.308;2024-01-07T00:43:55;16.20;68.00
37658;DHT22;23500;53.268;8.308;2024-01-07T00:46:21;16.20;68.20
37658;DHT22;23500;53.268;8.308;2024-01-07T00:48:47;16.20;68.80
37658;DHT22;23500;53.268;8.308;2024-01-07T00:51:13;16.20;68.20
37658;DHT22;23500;53.268;8.308;2024-01-07T00:53:39;16.20;67.90
37658;DHT22;23500;53.268;8.308;2024-01-07T00:56:05;16.20;68.10
37658;DHT22;23500;53.268;8.308;2024-01-07T00:58:31;16.20;68.10
37658;DHT22;23500;53.268;8.308;2024-01-07T01:00:57;16.20;68.30
37658;DHT22;23500;53.268;8.308;2024-01-07T01:03:25;16.20;67.90
37658;DHT22;23500;53.268;8.308;2024-01-07T01:05:52;16.10;68.00
37658;DHT22;23500;53.268;8.308;2024-01-07T01:08:18;16.20;67.60
37658;DHT22;23500;53.268;8.308;2024-01-07T01:10:43;16.10;67.30
37658;DHT22;23500;53.268;8.308;2024-01-07T01:13:09;16.20;67.10
37658;DHT22;23500;53.268;8.308;2024-01-07T01:15:35;16.30;66.30
37658;DHT22;23500;53.268;8.308;2024-01-07T01:18:01;16.40;66.10
37658;DHT22;23500;53.268;8.308;2024-01-07T01:20:26;16.50;65.70
37658;DHT22;23500;53.268;8.308;2024-01-07T01:22:52;16.60;65.20
37658;DHT22;23500;53.268;8.308;2024-01-07T01:25:18;16.70;65.00
37658;DHT22;23500;53.268;8.308;2024-01-07T01:27:44;16.80;64.30
37658;DHT22;23500;53.268;8.308;2024-01-07T01:30:11;16.90;64.20
37658;DHT22;23500;53.268;8.308;2024-01-07T01:32:36;17.00;64.20
37658;DHT22;23500;53.268;8.308;2024-01-07T01:35:02;17.20;63.70
37658;DHT22;23500;53.268;8.308;2024-01-07T01:37:28;17.30;63.60
37658;DHT22;23500;53.268;8.308;2024-01-07T01:39:54;17.40;63.00
37658;DHT22;23500;53.268;8.308;2024-01-07T01:42:19;17.50;62.60
37658;DHT22;23500;53.268;8.308;2024-01-07T01:44:46;17.60;62.70
37658;DHT22;23500;53.268;8.308;2024-01-07T01:47:12;17.70;62.30
37658;DHT22;23500;53.268;8.308;2024-01-07T01:49:37;17.70;62.10
37658;DHT22;23500;53.268;8.308;2024-01-07T01:52:04;17.80;62.70
37658;DHT22;23500;53.268;8.308;2024-01-07T01:54:30;17.80;61.70
37658;DHT22;23500;53.268;8.308;2024-01-07T01:56:56;17.90;61.40
37658;DHT22;23500;53.268;8.308;2024-01-07T01:59:23;17.90;61.30
37658;DHT22;23500;53.268;8.308;2024-01-07T02:01:49;17.90;61.10
37658;DHT22;23500;53.268;8.308;2024-01-07T02:04:15;18.00;60.90
37658;DHT22;23500;53.268;8.308;2024-01-07T02:06:41;18.00;60.90
37658;DHT22;23500;53.268;8.308;2024-01-07T02:09:07;18.00;60.40
37658;DHT22;23500;53.268;8.308;2024-01-07T02:11:33;18.00;60.40
37658;DHT22;23500;53.268;8.308;2024-01-07T02:13:58;18.00;60.00
37658;DHT22;23500;53.268;8.308;2024-01-07T02:16:24;18.10;60.20
37658;DHT22;23500;53.268;8.308;2024-01-07T02:18:50;18.10;59.70
37658;DHT22;23500;53.268;8.308;2024-01-07T02:21:15;18.10;59.80
37658;DHT22;23500;53.268;8.308;2024-01-07T02:23:41;18.10;59.80
37658;DHT22;23500;53.268;8.308;2024-01-07T02:26:07;18.10;60.30
37658;DHT22;23500;53.268;8.308;2024-01-07T02:28:33;18.10;60.10
37658;DHT22;23500;53.268;8.308;2024-01-07T02:30:59;18.10;60.00
37658;DHT22;23500;53.268;8.308;2024-01-07T02:33:25;18.10;59.80
37658;DHT22;23500;53.268;8.308;2024-01-07T02:35:51;18.10;60.30
37658;DHT22;23500;53.268;8.308;2024-01-07T02:38:17;18.10;60.10
37658;DHT22;23500;53.268;8.308;2024-01-07T02:40:42;18.10;60.10
37658;DHT22;23500;53.268;8.308;2024-01-07T02:43:08;18.10;60.30
37658;DHT22;23500;53.268;8.308;2024-01-07T02:45:34;18.10;60.30
37658;DHT22;23500;53.268;8.308;2024-01-07T02:48:00;18.10;60.40
37658;DHT22;23500;53.268;8.308;2024-01-07T02:50:25;18.10;60.20
37658;DHT22;23500;53.268;8.308;2024-01-07T02:52:51;18.10;60.10
37658;DHT22;23500;53.268;8.308;2024-01-07T02:55:17;18.10;60.10
37658;DHT22;23500;53.268;8.308;2024-01-07T02:57:42;18.10;60.10
37658;DHT22;23500;53.268;8.308;2024-01-07T03:00:08;18.10;60.10
37658;DHT22;23500;53.268;8.308;2024-01-07T03:02:34;18.10;59.90
37658;DHT22;23500;53.268;8.308;2024-01-07T03:05:00;18.10;60.00
37658;DHT22;23500;53.268;8.308;2024-01-07T03:07:25;18.10;59.50
37658;DHT22;23500;53.268;8.308;2024-01-07T03:09:51;18.10;59.80
37658;DHT22;23500;53.268;8.308;2024-01-07T03:12:17;18.10;59.90
37658;DHT22;23500;53.268;8.308;2024-01-07T03:14:43;18.10;60.00
37658;DHT22;23500;53.268;8.308;2024-01-07T03:17:12;18.10;59.80
37658;DHT22;23500;53.268;8.308;2024-01-07T03:19:38;18.10;59.90
37658;DHT22;23500;53.268;8.308;2024-01-07T03:22:04;18.10;59.70
37658;DHT22;23500;53.268;8.308;2024-01-07T03:24:31;18.10;59.70
37658;DHT22;23500;53.268;8.308;2024-01-07T03:26:56;18.10;59.80
37658;DHT22;23500;53.268;8.308;2024-01-07T03:29:22;18.10;59.70
37658;DHT22;23500;53.268;8.308;2024-01-07T03:31:48;18.10;59.60
37658;DHT22;23500;53.268;8.308;2024-01-07T03:34:13;18.10;59.90
37658;DHT22;23500;53.268;8.308;2024-01-07T03:36:39;18.10;59.60
37658;DHT22;23500;53.268;8.308;2024-01-07T03:39:05;18.10;59.90
37658;DHT22;23500;53.268;8.308;2024-01-07T03:41:30;18.10;59.60
37658;DHT22;23500;53.268;8.308;2024-01-07T03:43:56;18.10;59.70
37658;DHT22;23500;53.268;8.308;2024-01-07T03:46:22;18.10;59.50
37658;DHT22;23500;53.268;8.308;2024-01-07T03:48:48;18.10;59.60
37658;DHT22;23500;53.268;8.308;2024-01-07T03:51:13;18.10;59.50
37658;DHT22;23500;53.268;8.308;2024-01-07T03:53:39;18.10;59.70
37658;DHT22;23500;53.268;8.308;2024-01-07T03:56:05;18.10;59.80
37658;DHT22;23500;53.268;8.308;2024-01-07T03:58:31;18.10;59.70
37658;DHT22;23500;53.268;8.308;2024-01-07T04:00:57;18.10;59.60
37658;DHT22;23500;53.268;8.308;2024-01-07T04:03:23;18.10;59.70
37658;DHT22;23500;53.268;8.308;2024-01-07T04:05:48;18.10;59.60
37658;DHT22;23500;53.268;8.308;2024-01-07T04:08:14;18.10;60.10
37658;DHT22;23500;53.268;8.308;2024-01-07T04:10:41;18.10;59.40
37658;DHT22;23500;53.268;8.308;2024-01-07T04:13:07;18.10;59.40
37658;DHT22;23500;53.268;8.308;2024-01-07T04:15:33;18.10;59.60
37658;DHT22;23500;53.268;8.308;2024-01-07T04:18:01;18.10;59.90
37658;DHT22;23500;53.268;8.308;2024-01-07T04:20:28;18.10;60.00
37658;DHT22;23500;53.268;8.308;2024-01-07T04:22:54;18.10;59.60
37658;DHT22;23500;53.268;8.308;2024-01-07T04:25:20;18.10;59.70
37658;DHT22;23500;53.268;8.308;2024-01-07T04:27:45;18.10;59.50
37658;DHT22;23500;53.268;8.308;2024-01-07T04:30:11;18.10;59.50
37658;DHT22;23500;53.268;8.308;2024-01-07T04:32:37;18.10;59.50
37658;DHT22;23500;53.268;8.308;2024-01-07T04:35:03;18.10;59.40
37658;DHT22;23500;53.268;8.308;2024-01-07T04:37:28;18.10;59.20
37658;DHT22;23500;53.268;8.308;2024-01-07T04:39:54;18.10;59.40
37658;DHT22;23500;53.268;8.308;2024-01-07T04:42:20;18.10;59.50
37658;DHT22;23500;53.268;8.308;2024-01-07T04:44:45;18.10;59.20
37658;DHT22;23500;53.268;8.308;2024-01-07T04:47:28;18.10;59.40
37658;DHT22;23500;53.268;8.308;2024-01-07T04:49:54;18.10;59.40
37658;DHT22;23500;53.268;8.308;2024-01-07T04:52:21;18.10;59.70
37658;DHT22;23500;53.268;8.308;2024-01-07T04:54:46;18.10;59.60
37658;DHT22;23500;53.268;8.308;2024-01-07T04:57:12;18.10;59.60
37658;DHT22;23500;53.268;8.308;2024-01-07T04:59:38;18.10;59.30
37658;DHT22;23500;53.268;8.308;2024-01-07T05:02:03;18.10;59.40
37658;DHT22;23500;53.268;8.308;2024-01-07T05:04:29;18.10;59.70
37658;DHT22;23500;53.268;8.308;2024-01-07T05:06:55;18.10;59.60
37658;DHT22;23500;53.268;8.308;2024-01-07T05:09:21;18.10;59.40
37658;DHT22;23500;53.268;8.308;2024-01-07T05:11:46;18.10;59.60
37658;DHT22;23500;53.268;8.308;2024-01-07T05:14:12;18.10;59.50
37658;DHT22;23500;53.268;8.308;2024-01-07T05:16:37;18.10;59.60
37658;DHT22;23500;53.268;8.308;2024-01-07T05:19:03;18.10;60.10
37658;DHT22;23500;53.268;8.308;2024-01-07T05:21:29;18.10;59.60
37658;DHT22;23500;53.268;8.308;2024-01-07T05:23:55;18.10;59.40
37658;DHT22;23500;53.268;8.308;2024-01-07T05:26:21;18.10;59.50
37658;DHT22;23500;53.268;8.308;2024-01-07T05:28:47;18.10;59.50
37658;DHT22;23500;53.268;8.308;2024-01-07T05:31:16;18.10;59.30
37658;DHT22;23500;53.268;8.308;2024-01-07T05:33:43;18.10;59.60
37658;DHT22;23500;53.268;8.308;2024-01-07T05:36:11;18.10;59.30
37658;DHT22;23500;53.268;8.308;2024-01-07T05:38:36;18.10;59.40
37658;DHT22;23500;53.268;8.308;2024-01-07T05:41:02;18.10;59.40
37658;DHT22;23500;53.268;8.308;2024-01-07T05:43:28;18.20;59.40
37658;DHT22;23500;53.268;8.308;2024-01-07T05:45:53;18.20;59.40
37658;DHT22;23500;53.268;8.308;2024-01-07T05:48:21;18.10;59.40
37658;DHT22;23500;53.268;8.308;2024-01-07T05:50:47;18.20;59.40
37658;DHT22;23500;53.268;8.308;2024-01-07T05:53:13;18.20;59.40
37658;DHT22;23500;53.268;8.308;2024-01-07T05:55:39;18.20;59.50
37658;DHT22;23500;53.268;8.308;2024-01-07T05:58:05;18.20;59.60
37658;DHT22;23500;53.268;8.308;2024-01-07T06:00:30;18.20;59.60
37658;DHT22;23500;53.268;8.308;2024-01-07T06:02:56;18.20;59.40
37658;DHT22;23500;53.268;8.308;2024-01-07T06:05:22;18.20;59.50
37658;DHT22;23500;53.268;8.308;2024-01-07T06:07:48;18.20;59.60
37658;DHT22;23500;53.268;8.308;2024-01-07T06:10:14;18.20;59.50
37658;DHT22;23500;53.268;8.308;2024-01-07T06:12:40;18.20;59.60
37658;DHT22;23500;53.268;8.308;2024-01-07T06:15:06;18.20;59.50
37658;DHT22;23500;53.268;8.308;2024-01-07T06:17:32;18.20;59.20
37658;DHT22;23500;53.268;8.308;2024-01-07T06:19:58;18.20;59.20
37658;DHT22;23500;53.268;8.308;2024-01-07T06:22:23;18.20;59.30
37658;DHT22;23500;53.268;8.308;2024-01-07T06:24:49;18.20;59.40
37658;DHT22;23500;53.268;8.308;2024-01-07T06:27:15;18.20;59.50
37658;DHT22;23500;53.268;8.308;2024-01-07T06:29:40;18.20;59.90
37658;DHT22;23500;53.268;8.308;2024-01-07T06:32:06;18.20;60.10
37658;DHT22;23500;53.268;8.308;2024-01-07T06:34:32;18.20;59.60
37658;DHT22;23500;53.268;8.308;2024-01-07T06:36:59;18.20;59.60
37658;DHT22;23500;53.268;8.308;2024-01-07T06:39:25;18.20;59.70
37658;DHT22;23500;53.268;8.308;2024-01-07T06:41:53;18.20;59.40
37658;DHT22;23500;53.268;8.308;2024-01-07T06:44:19;18.20;59.50
37658;DHT22;23500;53.268;8.308;2024-01-07T06:46:45;18.20;59.30
37658;DHT22;23500;53.268;8.308;2024-01-07T06:49:11;18.20;59.40
37658;DHT22;23500;53.268;8.308;2024-01-07T06:51:37;18.20;59.50
37658;DHT22;23500;53.268;8.308;2024-01-07T06:54:04;18.20;59.60
37658;DHT22;23500;53.268;8.308;2024-01-07T06:56:29;18.20;59.30
37658;DHT22;23500;53.268;8.308;2024-01-07T06:58:55;18.20;59.60
37658;DHT22;23500;53.268;8.308;2024-01-07T07:01:21;18.20;59.10
37658;DHT22;23500;53.268;8.308;2024-01-07T07:03:50;18.20;59.30
37658;DHT22;23500;53.268;8.308;2024-01-07T07:06:16;18.20;59.00
37658;DHT22;23500;53.268;8.308;2024-01-07T07:08:42;18.20;59.10
37658;DHT22;23500;53.268;8.308;2024-01-07T07:11:08;18.20;59.50
37658;DHT22;23500;53.268;8.308;2024-01-07T07:13:33;18.20;59.60
37658;DHT22;23500;53.268;8.308;2024-01-07T07:16:00;18.20;59.60
37658;DHT22;23500;53.268;8.308;2024-01-07T07:18:25;18.20;59.80
37658;DHT22;23500;53.268;8.308;2024-01-07T07:20:51;18.20;59.70
37658;DHT22;23500;53.268;8.308;2024-01-07T07:23:17;18.20;59.80
37658;DHT22;23500;53.268;8.308;2024-01-07T07:25:43;18.20;59.70
37658;DHT22;23500;53.268;8.308;2024-01-07T07:28:09;18.20;59.70
37658;DHT22;23500;53.268;8.308;2024-01-07T07:30:34;18.20;59.80
37658;DHT22;23500;53.268;8.308;2024-01-07T07:33:00;18.20;59.80
37658;DHT22;23500;53.268;8.308;2024-01-07T07:35:26;18.20;59.70
37658;DHT22;23500;53.268;8.308;2024-01-07T07:37:51;18.20;59.60
37658;DHT22;23500;53.268;8.308;2024-01-07T07:40:17;18.20;59.70
37658;DHT22;23500;53.268;8.308;2024-01-07T07:42:44;18.20;59.70
37658;DHT22;23500;53.268;8.308;2024-01-07T07:45:10;18.20;59.80
37658;DHT22;23500;53.268;8.308;2024-01-07T07:47:36;18.10;59.80
37658;DHT22;23500;53.268;8.308;2024-01-07T07:50:02;18.10;59.90
37658;DHT22;23500;53.268;8.308;2024-01-07T07:52:28;18.10;60.00
37658;DHT22;23500;53.268;8.308;2024-01-07T07:54:54;18.10;60.10
37658;DHT22;23500;53.268;8.308;2024-01-07T07:57:20;18.10;60.20
37658;DHT22;23500;53.268;8.308;2024-01-07T07:59:49;18.00;60.30
37658;DHT22;23500;53.268;8.308;2024-01-07T08:02:15;18.10;60.30
37658;DHT22;23500;53.268;8.308;2024-01-07T08:04:41;18.10;60.40
37658;DHT22;23500;53.268;8.308;2024-01-07T08:07:08;18.10;60.40
37658;DHT22;23500;53.268;8.308;2024-01-07T08:09:34;18.20;60.50
37658;DHT22;23500;53.268;8.308;2024-01-07T08:12:03;18.20;60.50
37658;DHT22;23500;53.268;8.308;2024-01-07T08:14:29;18.30;60.40
37658;DHT22;23500;53.268;8.308;2024-01-07T08:16:55;18.30;60.10
37658;DHT22;23500;53.268;8.308;2024-01-07T08:19:20;18.30;60.10
37658;DHT22;23500;53.268;8.308;2024-01-07T08:21:46;18.30;60.10
37658;DHT22;23500;53.268;8.308;2024-01-07T08:24:12;18.30;60.10
37658;DHT22;23500;53.268;8.308;2024-01-07T08:26:38;18.30;60.00
37658;DHT22;23500;53.268;8.308;2024-01-07T08:29:03;18.30;59.90
37658;DHT22;23500;53.268;8.308;2024-01-07T08:31:29;18.30;59.80
37658;DHT22;23500;53.268;8.308;2024-01-07T08:33:55;18.30;59.80
37658;DHT22;23500;53.268;8.308;2024-01-07T08:36:21;18.30;59.80
37658;DHT22;23500;53.268;8.308;2024-01-07T08:38:47;18.30;59.90
37658;DHT22;23500;53.268;8.308;2024-01-07T08:41:15;18.30;59.90
37658;DHT22;23500;53.268;8.308;2024-01-07T08:43:41;18.30;60.10
37658;DHT22;23500;53.268;8.308;2024-01-07T08:46:07;18.30;60.00
37658;DHT22;23500;53.268;8.308;2024-01-07T08:48:33;18.30;59.90
37658;DHT22;23500;53.268;8.308;2024-01-07T08:50:58;18.30;59.80
37658;DHT22;23500;53.268;8.308;2024-01-07T08:53:24;18.30;60.40
37658;DHT22;23500;53.268;8.308;2024-01-07T08:55:50;18.30;59.80
37658;DHT22;23500;53.268;8.308;2024-01-07T08:58:16;18.30;59.80
37658;DHT22;23500;53.268;8.308;2024-01-07T09:00:43;18.30;59.90
37658;DHT22;23500;53.268;8.308;2024-01-07T09:03:09;18.30;60.00
37658;DHT22;23500;53.268;8.308;2024-01-07T09:05:35;18.30;60.10
37658;DHT22;23500;53.268;8.308;2024-01-07T09:08:00;18.30;60.20
37658;DHT22;23500;53.268;8.308;2024-01-07T09:10:26;18.30;60.10
37658;DHT22;23500;53.268;8.308;2024-01-07T09:12:52;18.30;60.00
37658;DHT22;23500;53.268;8.308;2024-01-07T09:15:19;18.20;60.10
37658;DHT22;23500;53.268;8.308;2024-01-07T09:17:46;18.20;60.00
37658;DHT22;23500;53.268;8.308;2024-01-07T09:20:12;18.20;60.20
37658;DHT22;23500;53.268;8.308;2024-01-07T09:22:38;18.20;59.60
37658;DHT22;23500;53.268;8.308;2024-01-07T09:25:05;18.20;60.10
37658;DHT22;23500;53.268;8.308;2024-01-07T09:27:32;18.20;59.90
37658;DHT22;23500;53.268;8.308;2024-01-07T09:29:57;18.30;59.90
37658;DHT22;23500;53.268;8.308;2024-01-07T09:32:23;18.40;59.80
37658;DHT22;23500;53.268;8.308;2024-01-07T09:34:49;18.40;59.70
37658;DHT22;23500;53.268;8.308;2024-01-07T09:37:15;18.50;59.60
37658;DHT22;23500;53.268;8.308;2024-01-07T09:39:41;18.60;59.30
37658;DHT22;23500;53.268;8.308;2024-01-07T09:42:13;18.60;59.10
37658;DHT22;23500;53.268;8.308;2024-01-07T09:44:40;18.60;58.80
37658;DHT22;23500;53.268;8.308;2024-01-07T09:47:10;18.60;58.60
37658;DHT22;23500;53.268;8.308;2024-01-07T09:49:37;18.60;58.70
37658;DHT22;23500;53.268;8.308;2024-01-07T09:52:04;18.60;58.50
37658;DHT22;23500;53.268;8.308;2024-01-07T09:54:30;18.60;58.40
37658;DHT22;23500;53.268;8.308;2024-01-07T09:57:06;18.60;58.60
37658;DHT22;23500;53.268;8.308;2024-01-07T09:59:33;18.60;58.40
37658;DHT22;23500;53.268;8.308;2024-01-07T10:01:59;18.50;58.60
37658;DHT22;23500;53.268;8.308;2024-01-07T10:04:25;18.50;58.60
37658;DHT22;23500;53.268;8.308;2024-01-07T10:06:51;18.50;58.50
37658;DHT22;23500;53.268;8.308;2024-01-07T10:09:24;18.40;58.70
37658;DHT22;23500;53.268;8.308;2024-01-07T10:11:52;18.40;58.50
37658;DHT22;23500;53.268;8.308;2024-01-07T10:14:17;18.40;58.50
37658;DHT22;23500;53.268;8.308;2024-01-07T10:16:43;18.30;58.50
37658;DHT22;23500;53.268;8.308;2024-01-07T10:19:09;18.30;58.30
37658;DHT22;23500;53.268;8.308;2024-01-07T10:21:35;18.30;58.20
37658;DHT22;23500;53.268;8.308;2024-01-07T10:24:11;18.30;57.70
37658;DHT22;23500;53.268;8.308;2024-01-07T10:26:40;18.30;58.30
37658;DHT22;23500;53.268;8.308;2024-01-07T10:29:07;18.30;58.30
37658;DHT22;23500;53.268;8.308;2024-01-07T10:31:34;18.40;58.40
37658;DHT22;23500;53.268;8.308;2024-01-07T10:34:00;18.50;58.00
37658;DHT22;23500;53.268;8.308;2024-01-07T10:36:26;18.60;58.00
37658;DHT22;23500;53.268;8.308;2024-01-07T10:38:52;18.60;57.80
37658;DHT22;23500;53.268;8.308;2024-01-07T10:41:21;18.70;57.40
37658;DHT22;23500;53.268;8.308;2024-01-07T10:43:48;18.80;57.10
37658;DHT22;23500;53.268;8.308;2024-01-07T10:46:15;18.80;57.30
37658;DHT22;23500;53.268;8.308;2024-01-07T10:49:03;18.80;56.80
37658;DHT22;23500;53.268;8.308;2024-01-07T10:51:33;18.70;56.70
37658;DHT22;23500;53.268;8.308;2024-01-07T10:53:59;18.70;56.80
37658;DHT22;23500;53.268;8.308;2024-01-07T10:56:32;18.60;56.30
37658;DHT22;23500;53.268;8.308;2024-01-07T10:58:59;18.60;56.30
37658;DHT22;23500;53.268;8.308;2024-01-07T11:01:25;18.60;56.30
37658;DHT22;23500;53.268;8.308;2024-01-07T11:04:08;18.50;57.00
37658;DHT22;23500;53.268;8.308;2024-01-07T11:06:49;18.50;56.50
37658;DHT22;23500;53.268;8.308;2024-01-07T11:09:41;18.50;56.60
37658;DHT22;23500;53.268;8.308;2024-01-07T11:12:11;18.40;56.80
37658;DHT22;23500;53.268;8.308;2024-01-07T11:14:41;18.40;56.80
37658;DHT22;23500;53.268;8.308;2024-01-07T11:17:11;18.40;56.90
37658;DHT22;23500;53.268;8.308;2024-01-07T11:19:51;18.40;57.10
37658;DHT22;23500;53.268;8.308;2024-01-07T11:22:25;18.30;57.20
37658;DHT22;23500;53.268;8.308;2024-01-07T11:24:56;18.30;57.30
37658;DHT22;23500;53.268;8.308;2024-01-07T11:27:23;18.30;57.20
37658;DHT22;23500;53.268;8.308;2024-01-07T11:29:55;18.30;57.30
37658;DHT22;23500;53.268;8.308;2024-01-07T11:32:29;18.30;57.20
37658;DHT22;23500;53.268;8.308;2024-01-07T11:34:55;18.30;57.20
37658;DHT22;23500;53.268;8.308;2024-01-07T11:37:22;18.30;57.30
37658;DHT22;23500;53.268;8.308;2024-01-07T11:39:51;18.30;57.40
37658;DHT22;23500;53.268;8.308;2024-01-07T11:42:17;18.30;57.40
37658;DHT22;23500;53.268;8.308;2024-01-07T11:44:48;18.30;57.50
37658;DHT22;23500;53.268;8.308;2024-01-07T11:47:16;18.30;57.60
37658;DHT22;23500;53.268;8.308;2024-01-07T11:49:41;18.30;57.40
37658;DHT22;23500;53.268;8.308;2024-01-07T11:52:08;18.30;57.40
37658;DHT22;23500;53.268;8.308;2024-01-07T11:54:35;18.40;58.00
37658;DHT22;23500;53.268;8.308;2024-01-07T11:57:01;18.40;57.70
37658;DHT22;23500;53.268;8.308;2024-01-07T11:59:27;18.50;57.30
37658;DHT22;23500;53.268;8.308;2024-01-07T12:01:54;18.50;57.10
37658;DHT22;23500;53.268;8.308;2024-01-07T12:04:20;18.50;57.20
37658;DHT22;23500;53.268;8.308;2024-01-07T12:06:47;18.50;56.90
37658;DHT22;23500;53.268;8.308;2024-01-07T12:09:13;18.50;56.80
37658;DHT22;23500;53.268;8.308;2024-01-07T12:11:40;18.50;56.80
37658;DHT22;23500;53.268;8.308;2024-01-07T12:14:09;18.50;56.70
37658;DHT22;23500;53.268;8.308;2024-01-07T12:16:36;18.50;56.90
37658;DHT22;23500;53.268;8.308;2024-01-07T12:19:02;18.50;56.80
37658;DHT22;23500;53.268;8.308;2024-01-07T12:21:28;18.50;56.80
37658;DHT22;23500;53.268;8.308;2024-01-07T12:23:55;18.40;56.60
37658;DHT22;23500;53.268;8.308;2024-01-07T12:26:26;18.40;56.70
37658;DHT22;23500;53.268;8.308;2024-01-07T12:28:52;18.40;56.80
37658;DHT22;23500;53.268;8.308;2024-01-07T12:31:19;18.40;56.80
37658;DHT22;23500;53.268;8.308;2024-01-07T12:33:46;18.40;56.90
37658;DHT22;23500;53.268;8.308;2024-01-07T12:36:12;18.40;56.70
37658;DHT22;23500;53.268;8.308;2024-01-07T12:38:38;18.30;56.80
37658;DHT22;23500;53.268;8.308;2024-01-07T12:41:04;18.30;56.70
37658;DHT22;23500;53.268;8.308;2024-01-07T12:43:30;18.30;56.80
37658;DHT22;23500;53.268;8.308;2024-01-07T12:45:56;18.30;56.80
37658;DHT22;23500;53.268;8.308;2024-01-07T12:48:23;18.30;56.70
37658;DHT22;23500;53.268;8.308;2024-01-07T12:50:49;18.30;56.80
37658;DHT22;23500;53.268;8.308;2024-01-07T12:53:14;18.30;57.50
37658;DHT22;23500;53.268;8.308;2024-01-07T12:55:40;18.30;56.80
37658;DHT22;23500;53.268;8.308;2024-01-07T12:58:06;18.30;57.00
37658;DHT22;23500;53.268;8.308;2024-01-07T13:00:32;18.30;57.50
37658;DHT22;23500;53.268;8.308;2024-01-07T13:02:59;18.30;56.90
37658;DHT22;23500;53.268;8.308;2024-01-07T13:05:25;18.20;56.70
37658;DHT22;23500;53.268;8.308;2024-01-07T13:07:51;18.30;56.90
37658;DHT22;23500;53.268;8.308;2024-01-07T13:10:16;18.20;57.00
37658;DHT22;23500;53.268;8.308;2024-01-07T13:12:42;18.20;57.00
37658;DHT22;23500;53.268;8.308;2024-01-07T13:15:08;18.30;56.90
37658;DHT22;23500;53.268;8.308;2024-01-07T13:17:34;18.20;57.10
37658;DHT22;23500;53.268;8.308;2024-01-07T13:20:00;18.20;57.00
37658;DHT22;23500;53.268;8.308;2024-01-07T13:22:26;18.20;56.90
37658;DHT22;23500;53.268;8.308;2024-01-07T13:24:52;18.20;57.10
37658;DHT22;23500;53.268;8.308;2024-01-07T13:27:20;18.20;56.90
37658;DHT22;23500;53.268;8.308;2024-01-07T13:29:47;18.20;57.10
37658;DHT22;23500;53.268;8.308;2024-01-07T13:32:13;18.20;57.00
37658;DHT22;23500;53.268;8.308;2024-01-07T13:34:45;18.20;57.00
37658;DHT22;23500;53.268;8.308;2024-01-07T13:37:10;18.20;57.00
37658;DHT22;23500;53.268;8.308;2024-01-07T13:39:37;18.20;57.00
37658;DHT22;23500;53.268;8.308;2024-01-07T13:42:03;18.20;57.10
37658;DHT22;23500;53.268;8.308;2024-01-07T13:44:28;18.10;57.00
37658;DHT22;23500;53.268;8.308;2024-01-07T13:46:54;18.10;57.00
37658;DHT22;23500;53.268;8.308;2024-01-07T13:49:20;18.10;57.10
37658;DHT22;23500;53.268;8.308;2024-01-07T13:51:45;18.10;57.00
37658;DHT22;23500;53.268;8.308;2024-01-07T13:54:11;18.10;57.10
37658;DHT22;23500;53.268;8.308;2024-01-07T13:56:40;18.10;57.00
37658;DHT22;23500;53.268;8.308;2024-01-07T13:59:08;18.10;57.10
37658;DHT22;23500;53.268;8.308;2024-01-07T14:01:34;18.10;57.10
37658;DHT22;23500;53.268;8.308;2024-01-07T14:04:00;18.10;57.10
37658;DHT22;23500;53.268;8.308;2024-01-07T14:06:26;18.10;57.10
37658;DHT22;23500;53.268;8.308;2024-01-07T14:08:51;18.10;57.10
37658;DHT22;23500;53.268;8.308;2024-01-07T14:11:20;18.10;57.10
37658;DHT22;23500;53.268;8.308;2024-01-07T14:13:46;18.10;57.20
37658;DHT22;23500;53.268;8.308;2024-01-07T14:16:15;18.10;57.20
37658;DHT22;23500;53.268;8.308;2024-01-07T14:18:41;18.10;57.10
37658;DHT22;23500;53.268;8.308;2024-01-07T14:21:06;18.10;57.10
37658;DHT22;23500;53.268;8.308;2024-01-07T14:23:33;18.10;57.20
37658;DHT22;23500;53.268;8.308;2024-01-07T14:25:59;18.10;57.20
37658;DHT22;23500;53.268;8.308;2024-01-07T14:28:25;18.10;57.10
37658;DHT22;23500;53.268;8.308;2024-01-07T14:30:51;18.10;57.20
37658;DHT22;23500;53.268;8.308;2024-01-07T14:33:16;18.10;57.40
37658;DHT22;23500;53.268;8.308;2024-01-07T14:35:42;18.10;57.10
37658;DHT22;23500;53.268;8.308;2024-01-07T14:38:08;18.10;57.20
37658;DHT22;23500;53.268;8.308;2024-01-07T14:40:34;18.10;57.30
37658;DHT22;23500;53.268;8.308;2024-01-07T14:42:59;18.10;57.30
37658;DHT22;23500;53.268;8.308;2024-01-07T14:45:26;18.10;57.50
37658;DHT22;23500;53.268;8.308;2024-01-07T14:47:53;18.10;57.40
37658;DHT22;23500;53.268;8.308;2024-01-07T14:50:19;18.10;57.60
37658;DHT22;23500;53.268;8.308;2024-01-07T14:52:45;18.10;57.10
37658;DHT22;23500;53.268;8.308;2024-01-07T14:55:11;18.10;57.70
37658;DHT22;23500;53.268;8.308;2024-01-07T14:57:38;18.10;57.30
37658;DHT22;23500;53.268;8.308;2024-01-07T15:00:05;18.10;57.30
37658;DHT22;23500;53.268;8.308;2024-01-07T15:02:31;18.10;57.30
37658;DHT22;23500;53.268;8.308;2024-01-07T15:04:57;18.10;57.10
37658;DHT22;23500;53.268;8.308;2024-01-07T15:07:23;18.10;57.00
37658;DHT22;23500;53.268;8.308;2024-01-07T15:09:49;18.10;57.00
37658;DHT22;23500;53.268;8.308;2024-01-07T15:12:15;18.10;57.20
37658;DHT22;23500;53.268;8.308;2024-01-07T15:14:40;18.10;57.10
37658;DHT22;23500;53.268;8.308;2024-01-07T15:17:06;18.10;56.90
37658;DHT22;23500;53.268;8.308;2024-01-07T15:19:32;18.00;57.00
37658;DHT22;23500;53.268;8.308;2024-01-07T15:21:58;18.10;57.00
37658;DHT22;23500;53.268;8.308;2024-01-07T15:24:23;18.10;57.00